Miami, Florida
Traffic Map
Current Weather Conditions
Miami, Florida
Scattered Clouds
Scattered Clouds
85°
Feels Like: 86°
Wind Chill: 85° Ceiling: Unl
Heat Index: 86° Visibility: 10mi
Dew Point: 63° Wind: 7mph
Humidity: 48% Direction: 310° (NW)
Pressure: 29.99in Gusts: 0mph
Raw Report DataKMIA 192053Z 31006KT 10SM SCT048 SCT085 29/17 A2999 RMK AO2 SLP156 T02940172 56012
Traffic Incident Summary
Active as of:
Severity:
Category:
InformationThere was an issue retrieving the traffic information for this location. Please try a different location or try again shortly.
Advertisements
Track Severe Weather on mobile